sensor_id;sensor_type;location;lat;lon;timestamp;temperature;humidity
68433;DHT22;55412;51.350;17.056;2022-10-31T00:01:19;14.20;74.40
68433;DHT22;55412;51.350;17.056;2022-10-31T00:03:47;14.20;74.40
68433;DHT22;55412;51.350;17.056;2022-10-31T00:06:14;14.20;74.60
68433;DHT22;55412;51.350;17.056;2022-10-31T00:08:47;14.10;75.00
68433;DHT22;55412;51.350;17.056;2022-10-31T00:11:17;14.10;74.70
68433;DHT22;55412;51.350;17.056;2022-10-31T00:13:43;14.10;75.20
68433;DHT22;55412;51.350;17.056;2022-10-31T00:16:17;14.10;74.60
68433;DHT22;55412;51.350;17.056;2022-10-31T00:18:56;14.10;74.70
68433;DHT22;55412;51.350;17.056;2022-10-31T00:21:24;14.10;74.60
68433;DHT22;55412;51.350;17.056;2022-10-31T00:23:51;14.10;74.40
68433;DHT22;55412;51.350;17.056;2022-10-31T00:26:20;14.10;73.20
68433;DHT22;55412;51.350;17.056;2022-10-31T00:28:46;14.00;74.60
68433;DHT22;55412;51.350;17.056;2022-10-31T00:31:13;14.00;74.70
68433;DHT22;55412;51.350;17.056;2022-10-31T00:33:40;13.90;74.40
68433;DHT22;55412;51.350;17.056;2022-10-31T00:36:10;13.90;74.60
68433;DHT22;55412;51.350;17.056;2022-10-31T00:38:41;13.80;74.60
68433;DHT22;55412;51.350;17.056;2022-10-31T00:41:07;13.80;74.70
68433;DHT22;55412;51.350;17.056;2022-10-31T00:43:34;13.70;74.80
68433;DHT22;55412;51.350;17.056;2022-10-31T00:46:00;13.70;74.80
68433;DHT22;55412;51.350;17.056;2022-10-31T00:48:26;13.60;75.10
68433;DHT22;55412;51.350;17.056;2022-10-31T00:50:53;13.70;75.20
68433;DHT22;55412;51.350;17.056;2022-10-31T00:53:19;13.70;75.10
68433;DHT22;55412;51.350;17.056;2022-10-31T00:55:45;13.60;75.10
68433;DHT22;55412;51.350;17.056;2022-10-31T00:58:11;13.70;74.80
68433;DHT22;55412;51.350;17.056;2022-10-31T01:00:37;13.60;74.80
68433;DHT22;55412;51.350;17.056;2022-10-31T01:03:03;13.60;75.10
68433;DHT22;55412;51.350;17.056;2022-10-31T01:05:29;13.60;75.10
68433;DHT22;55412;51.350;17.056;2022-10-31T01:07:55;13.60;74.80
68433;DHT22;55412;51.350;17.056;2022-10-31T01:10:21;13.60;74.70
68433;DHT22;55412;51.350;17.056;2022-10-31T01:12:48;13.60;74.50
68433;DHT22;55412;51.350;17.056;2022-10-31T01:15:17;13.60;74.60
68433;DHT22;55412;51.350;17.056;2022-10-31T01:17:46;13.60;74.30
68433;DHT22;55412;51.350;17.056;2022-10-31T01:20:14;13.50;74.00
68433;DHT22;55412;51.350;17.056;2022-10-31T01:22:41;13.50;73.90
68433;DHT22;55412;51.350;17.056;2022-10-31T01:25:08;13.30;72.30
68433;DHT22;55412;51.350;17.056;2022-10-31T01:27:34;13.10;72.60
68433;DHT22;55412;51.350;17.056;2022-10-31T01:30:01;12.80;72.00
68433;DHT22;55412;51.350;17.056;2022-10-31T01:32:27;12.70;72.50
68433;DHT22;55412;51.350;17.056;2022-10-31T01:34:56;12.60;73.10
68433;DHT22;55412;51.350;17.056;2022-10-31T01:37:22;12.50;75.60
68433;DHT22;55412;51.350;17.056;2022-10-31T01:39:48;12.50;76.30
68433;DHT22;55412;51.350;17.056;2022-10-31T01:42:22;12.60;77.60
68433;DHT22;55412;51.350;17.056;2022-10-31T01:44:56;12.70;77.90
68433;DHT22;55412;51.350;17.056;2022-10-31T01:47:34;12.80;77.50
68433;DHT22;55412;51.350;17.056;2022-10-31T01:50:30;12.90;77.00
68433;DHT22;55412;51.350;17.056;2022-10-31T01:53:00;13.00;76.40
68433;DHT22;55412;51.350;17.056;2022-10-31T01:55:35;13.00;75.80
68433;DHT22;55412;51.350;17.056;2022-10-31T01:58:09;13.00;76.00
68433;DHT22;55412;51.350;17.056;2022-10-31T02:00:39;13.00;75.90
68433;DHT22;55412;51.350;17.056;2022-10-31T02:03:07;13.00;75.70
68433;DHT22;55412;51.350;17.056;2022-10-31T02:05:33;13.00;75.40
68433;DHT22;55412;51.350;17.056;2022-10-31T02:08:07;13.00;75.50
68433;DHT22;55412;51.350;17.056;2022-10-31T02:10:38;13.00;75.40
68433;DHT22;55412;51.350;17.056;2022-10-31T02:13:06;13.00;75.40
68433;DHT22;55412;51.350;17.056;2022-10-31T02:15:33;13.00;75.60
68433;DHT22;55412;51.350;17.056;2022-10-31T02:18:01;13.10;75.40
68433;DHT22;55412;51.350;17.056;2022-10-31T02:20:46;13.00;73.20
68433;DHT22;55412;51.350;17.056;2022-10-31T02:24:13;12.70;72.10
68433;DHT22;55412;51.350;17.056;2022-10-31T02:27:08;12.50;75.30
68433;DHT22;55412;51.350;17.056;2022-10-31T02:30:14;12.50;75.40
68433;DHT22;55412;51.350;17.056;2022-10-31T02:35:25;12.50;76.50
68433;DHT22;55412;51.350;17.056;2022-10-31T02:41:18;12.60;77.50
68433;DHT22;55412;51.350;17.056;2022-10-31T02:44:10;12.70;77.20
68433;DHT22;55412;51.350;17.056;2022-10-31T02:46:54;12.70;76.90
68433;DHT22;55412;51.350;17.056;2022-10-31T02:49:28;12.70;76.40
68433;DHT22;55412;51.350;17.056;2022-10-31T02:52:20;12.70;76.30
68433;DHT22;55412;51.350;17.056;2022-10-31T02:54:49;12.70;76.80
68433;DHT22;55412;51.350;17.056;2022-10-31T02:57:19;12.70;77.00
68433;DHT22;55412;51.350;17.056;2022-10-31T02:59:52;12.80;76.40
68433;DHT22;55412;51.350;17.056;2022-10-31T03:02:29;12.80;76.60
68433;DHT22;55412;51.350;17.056;2022-10-31T03:05:22;12.70;76.50
68433;DHT22;55412;51.350;17.056;2022-10-31T03:08:27;12.70;76.20
68433;DHT22;55412;51.350;17.056;2022-10-31T03:11:03;12.70;76.30
68433;DHT22;55412;51.350;17.056;2022-10-31T03:16:27;12.60;76.60
68433;DHT22;55412;51.350;17.056;2022-10-31T03:19:12;12.60;77.20
68433;DHT22;55412;51.350;17.056;2022-10-31T03:22:07;12.60;77.50
68433;DHT22;55412;51.350;17.056;2022-10-31T03:24:40;12.70;77.80
68433;DHT22;55412;51.350;17.056;2022-10-31T03:27:10;12.80;78.00
68433;DHT22;55412;51.350;17.056;2022-10-31T03:29:39;12.90;78.00
68433;DHT22;55412;51.350;17.056;2022-10-31T03:32:08;13.00;77.60
68433;DHT22;55412;51.350;17.056;2022-10-31T03:34:41;13.10;77.30
68433;DHT22;55412;51.350;17.056;2022-10-31T03:37:10;13.20;76.80
68433;DHT22;55412;51.350;17.056;2022-10-31T03:39:41;13.20;76.50
68433;DHT22;55412;51.350;17.056;2022-10-31T03:42:24;13.30;76.20
68433;DHT22;55412;51.350;17.056;2022-10-31T03:45:05;13.30;75.90
68433;DHT22;55412;51.350;17.056;2022-10-31T03:47:34;13.40;75.20
68433;DHT22;55412;51.350;17.056;2022-10-31T03:50:02;13.30;74.80
68433;DHT22;55412;51.350;17.056;2022-10-31T03:53:22;13.30;74.80
68433;DHT22;55412;51.350;17.056;2022-10-31T03:55:59;13.30;75.10
68433;DHT22;55412;51.350;17.056;2022-10-31T03:58:59;13.30;75.00
68433;DHT22;55412;51.350;17.056;2022-10-31T04:01:30;13.30;75.00
68433;DHT22;55412;51.350;17.056;2022-10-31T04:03:58;13.30;74.10
68433;DHT22;55412;51.350;17.056;2022-10-31T04:06:25;13.20;72.90
68433;DHT22;55412;51.350;17.056;2022-10-31T04:08:56;13.20;74.20
68433;DHT22;55412;51.350;17.056;2022-10-31T04:11:37;13.20;74.50
68433;DHT22;55412;51.350;17.056;2022-10-31T04:14:09;13.20;74.20
68433;DHT22;55412;51.350;17.056;2022-10-31T04:16:41;13.10;74.30
68433;DHT22;55412;51.350;17.056;2022-10-31T04:19:09;13.10;74.60
68433;DHT22;55412;51.350;17.056;2022-10-31T04:21:35;13.10;74.80
68433;DHT22;55412;51.350;17.056;2022-10-31T04:24:01;13.10;75.20
68433;DHT22;55412;51.350;17.056;2022-10-31T04:26:28;13.20;75.10
68433;DHT22;55412;51.350;17.056;2022-10-31T04:28:54;13.20;75.00
68433;DHT22;55412;51.350;17.056;2022-10-31T04:31:20;13.30;74.90
68433;DHT22;55412;51.350;17.056;2022-10-31T04:33:46;13.20;74.10
68433;DHT22;55412;51.350;17.056;2022-10-31T04:36:12;13.10;74.00
68433;DHT22;55412;51.350;17.056;2022-10-31T04:38:38;13.00;73.90
68433;DHT22;55412;51.350;17.056;2022-10-31T04:41:05;13.00;74.60
68433;DHT22;55412;51.350;17.056;2022-10-31T04:43:30;12.90;74.30
68433;DHT22;55412;51.350;17.056;2022-10-31T04:45:56;12.80;74.70
68433;DHT22;55412;51.350;17.056;2022-10-31T04:48:22;12.80;74.80
68433;DHT22;55412;51.350;17.056;2022-10-31T04:50:48;12.80;75.40
68433;DHT22;55412;51.350;17.056;2022-10-31T04:53:14;12.80;75.40
68433;DHT22;55412;51.350;17.056;2022-10-31T04:55:41;12.90;75.40
68433;DHT22;55412;51.350;17.056;2022-10-31T04:58:06;13.00;75.00
68433;DHT22;55412;51.350;17.056;2022-10-31T05:00:33;13.00;74.80
68433;DHT22;55412;51.350;17.056;2022-10-31T05:02:59;13.10;74.80
68433;DHT22;55412;51.350;17.056;2022-10-31T05:05:29;13.20;74.80
68433;DHT22;55412;51.350;17.056;2022-10-31T05:07:56;13.20;74.60
68433;DHT22;55412;51.350;17.056;2022-10-31T05:10:27;13.20;74.40
68433;DHT22;55412;51.350;17.056;2022-10-31T05:13:03;13.30;74.30
68433;DHT22;55412;51.350;17.056;2022-10-31T05:15:30;13.30;74.00
68433;DHT22;55412;51.350;17.056;2022-10-31T05:17:56;13.30;73.90
68433;DHT22;55412;51.350;17.056;2022-10-31T05:20:25;13.30;73.80
68433;DHT22;55412;51.350;17.056;2022-10-31T05:22:54;13.40;73.70
68433;DHT22;55412;51.350;17.056;2022-10-31T05:25:22;13.40;73.70
68433;DHT22;55412;51.350;17.056;2022-10-31T05:27:50;13.40;73.60
68433;DHT22;55412;51.350;17.056;2022-10-31T05:30:25;13.40;73.50
68433;DHT22;55412;51.350;17.056;2022-10-31T05:32:52;13.40;73.20
68433;DHT22;55412;51.350;17.056;2022-10-31T05:35:21;13.40;73.10
68433;DHT22;55412;51.350;17.056;2022-10-31T05:37:49;13.50;72.90
68433;DHT22;55412;51.350;17.056;2022-10-31T05:40:17;13.50;72.80
68433;DHT22;55412;51.350;17.056;2022-10-31T05:42:44;13.50;72.80
68433;DHT22;55412;51.350;17.056;2022-10-31T05:45:13;13.50;72.50
68433;DHT22;55412;51.350;17.056;2022-10-31T05:47:40;13.50;72.70
68433;DHT22;55412;51.350;17.056;2022-10-31T05:50:08;13.50;72.80
68433;DHT22;55412;51.350;17.056;2022-10-31T05:52:35;13.50;72.90
68433;DHT22;55412;51.350;17.056;2022-10-31T05:55:01;13.50;72.80
68433;DHT22;55412;51.350;17.056;2022-10-31T05:57:29;13.60;72.90
68433;DHT22;55412;51.350;17.056;2022-10-31T05:59:55;13.60;72.90
68433;DHT22;55412;51.350;17.056;2022-10-31T06:02:21;13.60;72.80
68433;DHT22;55412;51.350;17.056;2022-10-31T06:05:16;13.70;72.80
68433;DHT22;55412;51.350;17.056;2022-10-31T06:07:43;13.80;72.60
68433;DHT22;55412;51.350;17.056;2022-10-31T06:10:10;13.90;72.40
68433;DHT22;55412;51.350;17.056;2022-10-31T06:12:36;13.90;72.10
68433;DHT22;55412;51.350;17.056;2022-10-31T06:15:06;14.00;71.90
68433;DHT22;55412;51.350;17.056;2022-10-31T06:17:34;14.20;71.60
68433;DHT22;55412;51.350;17.056;2022-10-31T06:20:04;14.30;71.20
68433;DHT22;55412;51.350;17.056;2022-10-31T06:22:31;14.50;70.30
68433;DHT22;55412;51.350;17.056;2022-10-31T06:24:57;14.70;69.70
68433;DHT22;55412;51.350;17.056;2022-10-31T06:27:24;14.90;69.30
68433;DHT22;55412;51.350;17.056;2022-10-31T06:29:50;15.10;69.50
68433;DHT22;55412;51.350;17.056;2022-10-31T06:32:16;15.30;68.60
68433;DHT22;55412;51.350;17.056;2022-10-31T06:34:43;15.50;67.90
68433;DHT22;55412;51.350;17.056;2022-10-31T06:37:11;15.70;67.10
68433;DHT22;55412;51.350;17.056;2022-10-31T06:39:38;15.80;66.20
68433;DHT22;55412;51.350;17.056;2022-10-31T06:42:04;16.00;65.90
68433;DHT22;55412;51.350;17.056;2022-10-31T06:44:31;16.20;65.40
68433;DHT22;55412;51.350;17.056;2022-10-31T06:46:59;16.30;65.00
68433;DHT22;55412;51.350;17.056;2022-10-31T06:49:25;16.50;64.20
68433;DHT22;55412;51.350;17.056;2022-10-31T06:51:52;16.60;64.30
68433;DHT22;55412;51.350;17.056;2022-10-31T06:54:18;16.70;63.70
68433;DHT22;55412;51.350;17.056;2022-10-31T06:56:46;16.80;63.90
68433;DHT22;55412;51.350;17.056;2022-10-31T06:59:13;16.90;63.30
68433;DHT22;55412;51.350;17.056;2022-10-31T07:01:39;17.00;63.40
68433;DHT22;55412;51.350;17.056;2022-10-31T07:04:05;17.20;62.60
68433;DHT22;55412;51.350;17.056;2022-10-31T07:06:32;17.50;62.30
68433;DHT22;55412;51.350;17.056;2022-10-31T07:08:58;17.60;61.90
68433;DHT22;55412;51.350;17.056;2022-10-31T07:11:24;17.70;61.50
68433;DHT22;55412;51.350;17.056;2022-10-31T07:13:50;17.80;61.40
68433;DHT22;55412;51.350;17.056;2022-10-31T07:16:16;18.10;60.70
68433;DHT22;55412;51.350;17.056;2022-10-31T07:18:42;18.40;60.50
68433;DHT22;55412;51.350;17.056;2022-10-31T07:21:08;18.60;60.40
68433;DHT22;55412;51.350;17.056;2022-10-31T07:23:34;19.00;59.50
68433;DHT22;55412;51.350;17.056;2022-10-31T07:26:00;19.40;58.00
68433;DHT22;55412;51.350;17.056;2022-10-31T07:28:27;20.00;56.70
68433;DHT22;55412;51.350;17.056;2022-10-31T07:30:55;20.70;55.50
68433;DHT22;55412;51.350;17.056;2022-10-31T07:33:23;21.40;53.50
68433;DHT22;55412;51.350;17.056;2022-10-31T07:35:53;22.10;52.50
68433;DHT22;55412;51.350;17.056;2022-10-31T07:38:19;22.70;51.50
68433;DHT22;55412;51.350;17.056;2022-10-31T07:40:52;23.40;50.00
68433;DHT22;55412;51.350;17.056;2022-10-31T07:43:21;23.90;48.50
68433;DHT22;55412;51.350;17.056;2022-10-31T07:45:54;24.30;48.30
68433;DHT22;55412;51.350;17.056;2022-10-31T07:48:21;24.50;46.70
68433;DHT22;55412;51.350;17.056;2022-10-31T07:50:47;24.50;47.00
68433;DHT22;55412;51.350;17.056;2022-10-31T07:53:14;24.10;47.20
68433;DHT22;55412;51.350;17.056;2022-10-31T07:55:40;23.70;48.40
68433;DHT22;55412;51.350;17.056;2022-10-31T07:58:12;23.40;49.70
68433;DHT22;55412;51.350;17.056;2022-10-31T08:00:44;23.30;49.90
68433;DHT22;55412;51.350;17.056;2022-10-31T08:03:15;23.30;49.90
68433;DHT22;55412;51.350;17.056;2022-10-31T08:05:42;23.20;49.20
68433;DHT22;55412;51.350;17.056;2022-10-31T08:08:12;23.10;49.70
68433;DHT22;55412;51.350;17.056;2022-10-31T08:10:39;23.10;49.20
68433;DHT22;55412;51.350;17.056;2022-10-31T08:13:08;23.10;50.30
68433;DHT22;55412;51.350;17.056;2022-10-31T08:15:36;23.30;49.60
68433;DHT22;55412;51.350;17.056;2022-10-31T08:18:15;23.50;49.50
68433;DHT22;55412;51.350;17.056;2022-10-31T08:20:42;23.70;49.80
68433;DHT22;55412;51.350;17.056;2022-10-31T08:23:10;23.90;48.90
68433;DHT22;55412;51.350;17.056;2022-10-31T08:25:37;24.10;47.70
68433;DHT22;55412;51.350;17.056;2022-10-31T08:28:04;24.20;48.20
68433;DHT22;55412;51.350;17.056;2022-10-31T08:30:33;24.30;47.60
68433;DHT22;55412;51.350;17.056;2022-10-31T08:35:27;24.70;46.30
68433;DHT22;55412;51.350;17.056;2022-10-31T08:37:54;24.80;46.50
68433;DHT22;55412;51.350;17.056;2022-10-31T08:40:21;25.00;45.60
68433;DHT22;55412;51.350;17.056;2022-10-31T08:42:55;25.20;46.50
68433;DHT22;55412;51.350;17.056;2022-10-31T08:45:24;25.30;45.40
68433;DHT22;55412;51.350;17.056;2022-10-31T08:47:51;25.60;44.90
68433;DHT22;55412;51.350;17.056;2022-10-31T08:50:17;25.70;43.50
68433;DHT22;55412;51.350;17.056;2022-10-31T08:52:43;25.80;44.20
68433;DHT22;55412;51.350;17.056;2022-10-31T08:55:09;25.90;44.30
68433;DHT22;55412;51.350;17.056;2022-10-31T08:57:35;26.20;43.20
68433;DHT22;55412;51.350;17.056;2022-10-31T09:00:02;26.50;43.60
68433;DHT22;55412;51.350;17.056;2022-10-31T09:02:31;26.80;43.10
68433;DHT22;55412;51.350;17.056;2022-10-31T09:04:56;27.20;42.20
68433;DHT22;55412;51.350;17.056;2022-10-31T09:07:22;27.80;41.20
68433;DHT22;55412;51.350;17.056;2022-10-31T09:09:48;28.10;40.90
68433;DHT22;55412;51.350;17.056;2022-10-31T09:12:14;28.50;40.10
68433;DHT22;55412;51.350;17.056;2022-10-31T09:14:40;28.90;38.90
68433;DHT22;55412;51.350;17.056;2022-10-31T09:17:06;28.80;40.40
68433;DHT22;55412;51.350;17.056;2022-10-31T09:19:32;29.00;39.40
68433;DHT22;55412;51.350;17.056;2022-10-31T09:21:58;29.00;38.90
68433;DHT22;55412;51.350;17.056;2022-10-31T09:24:24;28.80;39.40
68433;DHT22;55412;51.350;17.056;2022-10-31T09:26:50;28.80;39.50
68433;DHT22;55412;51.350;17.056;2022-10-31T09:29:16;28.40;39.80
68433;DHT22;55412;51.350;17.056;2022-10-31T09:31:42;27.60;41.30
68433;DHT22;55412;51.350;17.056;2022-10-31T09:34:08;26.90;42.50
68433;DHT22;55412;51.350;17.056;2022-10-31T09:36:34;26.30;43.40
68433;DHT22;55412;51.350;17.056;2022-10-31T09:39:01;25.80;44.60
68433;DHT22;55412;51.350;17.056;2022-10-31T09:41:50;25.40;45.70
68433;DHT22;55412;51.350;17.056;2022-10-31T09:44:46;25.10;46.40
68433;DHT22;55412;51.350;17.056;2022-10-31T09:47:27;24.80;46.30
68433;DHT22;55412;51.350;17.056;2022-10-31T09:50:15;24.70;47.00
68433;DHT22;55412;51.350;17.056;2022-10-31T09:53:11;24.70;47.00
68433;DHT22;55412;51.350;17.056;2022-10-31T09:55:50;24.70;47.40
68433;DHT22;55412;51.350;17.056;2022-10-31T09:58:28;24.80;47.90
68433;DHT22;55412;51.350;17.056;2022-10-31T10:00:58;24.90;47.70
68433;DHT22;55412;51.350;17.056;2022-10-31T10:03:35;25.00;46.80
68433;DHT22;55412;51.350;17.056;2022-10-31T10:06:06;25.10;47.50
68433;DHT22;55412;51.350;17.056;2022-10-31T10:08:45;25.40;46.60
68433;DHT22;55412;51.350;17.056;2022-10-31T10:17:02;28.30;41.90
68433;DHT22;55412;51.350;17.056;2022-10-31T10:25:32;31.60;36.20
68433;DHT22;55412;51.350;17.056;2022-10-31T10:28:17;32.70;34.60
68433;DHT22;55412;51.350;17.056;2022-10-31T10:31:28;33.40;34.60
68433;DHT22;55412;51.350;17.056;2022-10-31T10:34:21;34.30;33.10
68433;DHT22;55412;51.350;17.056;2022-10-31T10:36:57;35.50;32.70
68433;DHT22;55412;51.350;17.056;2022-10-31T10:39:43;36.30;31.00
68433;DHT22;55412;51.350;17.056;2022-10-31T10:42:14;36.90;30.00
68433;DHT22;55412;51.350;17.056;2022-10-31T10:45:00;37.40;29.40
68433;DHT22;55412;51.350;17.056;2022-10-31T10:47:58;38.00;29.20
68433;DHT22;55412;51.350;17.056;2022-10-31T10:50:48;38.40;28.30
68433;DHT22;55412;51.350;17.056;2022-10-31T10:53:45;38.50;28.30
68433;DHT22;55412;51.350;17.056;2022-10-31T10:57:06;39.20;27.90
68433;DHT22;55412;51.350;17.056;2022-10-31T10:59:35;39.70;27.20
68433;DHT22;55412;51.350;17.056;2022-10-31T11:02:08;39.90;27.20
68433;DHT22;55412;51.350;17.056;2022-10-31T11:04:43;40.10;27.30
68433;DHT22;55412;51.350;17.056;2022-10-31T11:07:11;41.10;26.10
68433;DHT22;55412;51.350;17.056;2022-10-31T11:09:38;41.50;25.90
68433;DHT22;55412;51.350;17.056;2022-10-31T11:12:30;41.50;25.30
68433;DHT22;55412;51.350;17.056;2022-10-31T11:15:02;42.00;24.90
68433;DHT22;55412;51.350;17.056;2022-10-31T11:17:37;42.20;24.40
68433;DHT22;55412;51.350;17.056;2022-10-31T11:20:16;42.20;24.80
68433;DHT22;55412;51.350;17.056;2022-10-31T11:22:47;42.10;25.00
68433;DHT22;55412;51.350;17.056;2022-10-31T11:25:23;42.20;25.20
68433;DHT22;55412;51.350;17.056;2022-10-31T11:28:19;42.50;24.40
68433;DHT22;55412;51.350;17.056;2022-10-31T11:30:54;42.80;24.50
68433;DHT22;55412;51.350;17.056;2022-10-31T11:36:23;43.00;23.70
68433;DHT22;55412;51.350;17.056;2022-10-31T11:39:21;42.80;24.10
68433;DHT22;55412;51.350;17.056;2022-10-31T11:41:49;42.50;24.60
68433;DHT22;55412;51.350;17.056;2022-10-31T11:44:17;42.90;24.30
68433;DHT22;55412;51.350;17.056;2022-10-31T11:46:57;43.10;23.50
68433;DHT22;55412;51.350;17.056;2022-10-31T11:51:53;43.10;24.50
68433;DHT22;55412;51.350;17.056;2022-10-31T11:54:30;43.00;23.80
68433;DHT22;55412;51.350;17.056;2022-10-31T11:56:59;42.70;24.40
68433;DHT22;55412;51.350;17.056;2022-10-31T11:59:30;42.80;24.20
68433;DHT22;55412;51.350;17.056;2022-10-31T12:01:59;42.80;23.90
68433;DHT22;55412;51.350;17.056;2022-10-31T12:04:43;42.70;24.00
68433;DHT22;55412;51.350;17.056;2022-10-31T12:07:14;42.60;24.30
68433;DHT22;55412;51.350;17.056;2022-10-31T12:09:40;42.80;24.20
68433;DHT22;55412;51.350;17.056;2022-10-31T12:15:32;41.90;24.80
68433;DHT22;55412;51.350;17.056;2022-10-31T12:18:22;41.40;24.80
68433;DHT22;55412;51.350;17.056;2022-10-31T12:21:19;40.40;25.90
68433;DHT22;55412;51.350;17.056;2022-10-31T12:24:18;38.70;27.20
68433;DHT22;55412;51.350;17.056;2022-10-31T12:26:54;36.00;30.20
68433;DHT22;55412;51.350;17.056;2022-10-31T12:38:24;29.30;38.60
68433;DHT22;55412;51.350;17.056;2022-10-31T12:47:27;27.00;42.60
68433;DHT22;55412;51.350;17.056;2022-10-31T12:59:37;25.20;46.90
68433;DHT22;55412;51.350;17.056;2022-10-31T13:02:26;24.90;47.80
68433;DHT22;55412;51.350;17.056;2022-10-31T13:13:58;24.00;50.00
68433;DHT22;55412;51.350;17.056;2022-10-31T13:16:30;23.80;50.50
68433;DHT22;55412;51.350;17.056;2022-10-31T13:19:38;23.60;51.50
68433;DHT22;55412;51.350;17.056;2022-10-31T13:25:03;23.40;51.90
68433;DHT22;55412;51.350;17.056;2022-10-31T13:28:00;23.40;51.60
68433;DHT22;55412;51.350;17.056;2022-10-31T13:30:33;23.40;51.40
68433;DHT22;55412;51.350;17.056;2022-10-31T13:33:13;23.40;51.90
68433;DHT22;55412;51.350;17.056;2022-10-31T13:38:51;23.30;51.90
68433;DHT22;55412;51.350;17.056;2022-10-31T13:41:38;23.10;52.20
68433;DHT22;55412;51.350;17.056;2022-10-31T13:44:27;22.90;52.90
68433;DHT22;55412;51.350;17.056;2022-10-31T13:46:56;22.70;53.30
68433;DHT22;55412;51.350;17.056;2022-10-31T13:57:21;22.30;54.80
68433;DHT22;55412;51.350;17.056;2022-10-31T13:59:57;22.20;55.00
68433;DHT22;55412;51.350;17.056;2022-10-31T14:02:30;22.10;55.00
68433;DHT22;55412;51.350;17.056;2022-10-31T14:05:22;22.10;55.30
68433;DHT22;55412;51.350;17.056;2022-10-31T14:07:55;22.00;55.10
68433;DHT22;55412;51.350;17.056;2022-10-31T14:16:31;21.70;56.00
68433;DHT22;55412;51.350;17.056;2022-10-31T14:19:05;21.70;56.10
68433;DHT22;55412;51.350;17.056;2022-10-31T14:21:41;21.60;56.70
68433;DHT22;55412;51.350;17.056;2022-10-31T14:29:40;21.30;57.50
68433;DHT22;55412;51.350;17.056;2022-10-31T14:37:55;21.00;58.60
68433;DHT22;55412;51.350;17.056;2022-10-31T14:43:45;20.70;59.00
68433;DHT22;55412;51.350;17.056;2022-10-31T14:46:41;20.50;59.40
68433;DHT22;55412;51.350;17.056;2022-10-31T14:49:50;20.40;59.70
68433;DHT22;55412;51.350;17.056;2022-10-31T14:52:43;20.30;60.20
68433;DHT22;55412;51.350;17.056;2022-10-31T14:55:15;20.10;60.60
68433;DHT22;55412;51.350;17.056;2022-10-31T14:57:52;19.90;60.90
68433;DHT22;55412;51.350;17.056;2022-10-31T15:00:22;19.80;61.00
68433;DHT22;55412;51.350;17.056;2022-10-31T15:05:28;19.40;60.40
68433;DHT22;55412;51.350;17.056;2022-10-31T15:07:57;19.30;61.10
68433;DHT22;55412;51.350;17.056;2022-10-31T15:10:29;19.30;61.60
68433;DHT22;55412;51.350;17.056;2022-10-31T15:13:30;19.10;61.50
68433;DHT22;55412;51.350;17.056;2022-10-31T15:15:57;19.00;62.50
68433;DHT22;55412;51.350;17.056;2022-10-31T15:18:27;18.90;61.80
68433;DHT22;55412;51.350;17.056;2022-10-31T15:20:55;18.70;59.70
68433;DHT22;55412;51.350;17.056;2022-10-31T15:23:25;18.30;65.50
68433;DHT22;55412;51.350;17.056;2022-10-31T15:26:00;18.10;67.40
68433;DHT22;55412;51.350;17.056;2022-10-31T15:28:27;17.90;67.60
68433;DHT22;55412;51.350;17.056;2022-10-31T15:30:56;17.80;68.70
68433;DHT22;55412;51.350;17.056;2022-10-31T15:33:40;17.80;69.20
68433;DHT22;55412;51.350;17.056;2022-10-31T15:36:19;17.60;69.50
68433;DHT22;55412;51.350;17.056;2022-10-31T15:38:45;17.50;70.20
68433;DHT22;55412;51.350;17.056;2022-10-31T15:44:00;17.00;69.90
68433;DHT22;55412;51.350;17.056;2022-10-31T15:46:29;16.80;71.50
68433;DHT22;55412;51.350;17.056;2022-10-31T15:48:56;16.80;70.30
68433;DHT22;55412;51.350;17.056;2022-10-31T15:51:30;16.60;70.10
68433;DHT22;55412;51.350;17.056;2022-10-31T15:53:58;16.40;70.60
68433;DHT22;55412;51.350;17.056;2022-10-31T15:56:30;16.30;69.90
68433;DHT22;55412;51.350;17.056;2022-10-31T15:58:58;16.10;70.80
68433;DHT22;55412;51.350;17.056;2022-10-31T16:01:30;16.00;71.40
68433;DHT22;55412;51.350;17.056;2022-10-31T16:06:38;15.70;71.80
68433;DHT22;55412;51.350;17.056;2022-10-31T16:09:21;15.50;72.80
68433;DHT22;55412;51.350;17.056;2022-10-31T16:11:48;15.40;73.30
68433;DHT22;55412;51.350;17.056;2022-10-31T16:14:22;15.30;73.60
68433;DHT22;55412;51.350;17.056;2022-10-31T16:16:52;15.20;73.70
68433;DHT22;55412;51.350;17.056;2022-10-31T16:19:32;15.10;73.70
68433;DHT22;55412;51.350;17.056;2022-10-31T16:22:11;15.00;74.00
68433;DHT22;55412;51.350;17.056;2022-10-31T16:24:50;14.90;74.50
68433;DHT22;55412;51.350;17.056;2022-10-31T16:28:13;14.70;75.00
68433;DHT22;55412;51.350;17.056;2022-10-31T16:30:44;14.70;75.60
68433;DHT22;55412;51.350;17.056;2022-10-31T16:33:25;14.60;75.70
68433;DHT22;55412;51.350;17.056;2022-10-31T16:35:53;14.50;75.70
68433;DHT22;55412;51.350;17.056;2022-10-31T16:38:20;14.50;76.30
68433;DHT22;55412;51.350;17.056;2022-10-31T16:40:46;14.50;76.30
68433;DHT22;55412;51.350;17.056;2022-10-31T16:43:14;14.60;76.30
68433;DHT22;55412;51.350;17.056;2022-10-31T16:45:47;14.50;76.50
68433;DHT22;55412;51.350;17.056;2022-10-31T16:48:19;14.40;76.70
68433;DHT22;55412;51.350;17.056;2022-10-31T16:50:49;14.30;76.90
68433;DHT22;55412;51.350;17.056;2022-10-31T16:53:16;14.20;77.20
68433;DHT22;55412;51.350;17.056;2022-10-31T16:55:50;14.20;77.60
68433;DHT22;55412;51.350;17.056;2022-10-31T16:58:33;14.10;77.30
68433;DHT22;55412;51.350;17.056;2022-10-31T17:01:02;14.10;77.50
68433;DHT22;55412;51.350;17.056;2022-10-31T17:03:30;14.00;78.20
68433;DHT22;55412;51.350;17.056;2022-10-31T17:05:56;13.90;78.50
68433;DHT22;55412;51.350;17.056;2022-10-31T17:08:23;13.90;78.50
68433;DHT22;55412;51.350;17.056;2022-10-31T17:10:54;13.90;78.50
68433;DHT22;55412;51.350;17.056;2022-10-31T17:13:29;13.80;78.80
68433;DHT22;55412;51.350;17.056;2022-10-31T17:16:01;13.80;78.30
68433;DHT22;55412;51.350;17.056;2022-10-31T17:18:29;13.70;77.90
68433;DHT22;55412;51.350;17.056;2022-10-31T17:21:00;13.50;77.80
68433;DHT22;55412;51.350;17.056;2022-10-31T17:23:28;13.20;77.90
68433;DHT22;55412;51.350;17.056;2022-10-31T17:25:55;13.20;78.30
68433;DHT22;55412;51.350;17.056;2022-10-31T17:28:21;13.20;78.40
68433;DHT22;55412;51.350;17.056;2022-10-31T17:30:48;13.10;79.90
68433;DHT22;55412;51.350;17.056;2022-10-31T17:33:15;13.10;81.40
68433;DHT22;55412;51.350;17.056;2022-10-31T17:35:42;13.10;80.90
68433;DHT22;55412;51.350;17.056;2022-10-31T17:38:12;13.10;80.30